HBXWW EHGG-EHTE
Flight info
| Callsign | HBXWW |
|---|---|
| Flight time | 0h 45m |
| Altitude | 1200 |
| Route | EHGGV 525239N0063048E 524156N0061159E 523127N0060709E 522357N0061601E 521360N0061105E EHTES |
| Aircraft | H500/L-SDGY/S |
Departure
| Time | 2026-05-08 12:08 |
|---|---|
| Airport | Groningen Airport Eelde (EHGG) |
Arrival
| Time | 2026-05-08 12:54 |
|---|---|
| Airport | Teuge Airport (EHTE) |
| Time | Latitude | Longitude | Altitude | Speed | Heading |
|---|---|---|---|---|---|
| 2026-05-08 11:38 | 53.12946 | 6.58363 | 17 ft | 0 kts | 81° |
| 2026-05-08 12:01 | 53.12946 | 6.58364 | 21 ft | 0 kts | 82° |
| 2026-05-08 12:01 | 53.12944 | 6.58365 | 22 ft | 1 kts | 88° |
| 2026-05-08 12:01 | 53.12930 | 6.58416 | 32 ft | 7 kts | 133° |
| 2026-05-08 12:01 | 53.12872 | 6.58374 | 22 ft | 7 kts | 223° |
| 2026-05-08 12:02 | 53.12822 | 6.58303 | 22 ft | 10 kts | 216° |
| 2026-05-08 12:02 | 53.12764 | 6.58226 | 22 ft | 8 kts | 211° |
| 2026-05-08 12:02 | 53.12717 | 6.58237 | 28 ft | 9 kts | 134° |
| 2026-05-08 12:02 | 53.12674 | 6.58290 | 28 ft | 6 kts | 133° |
| 2026-05-08 12:03 | 53.12639 | 6.58334 | 25 ft | 7 kts | 156° |
| 2026-05-08 12:03 | 53.12580 | 6.58250 | 24 ft | 15 kts | 232° |
| 2026-05-08 12:03 | 53.12518 | 6.58112 | 27 ft | 17 kts | 232° |
| 2026-05-08 12:03 | 53.12451 | 6.57971 | 27 ft | 13 kts | 236° |
| 2026-05-08 12:04 | 53.12394 | 6.57856 | 27 ft | 12 kts | 206° |
| 2026-05-08 12:04 | 53.12275 | 6.57814 | 35 ft | 18 kts | 171° |
| 2026-05-08 12:04 | 53.12143 | 6.57779 | 37 ft | 20 kts | 171° |
| 2026-05-08 12:04 | 53.12021 | 6.57749 | 33 ft | 16 kts | 182° |
| 2026-05-08 12:05 | 53.11913 | 6.57725 | 37 ft | 9 kts | 124° |
| 2026-05-08 12:05 | 53.11911 | 6.57787 | 45 ft | 3 kts | 49° |
| 2026-05-08 12:05 | 53.11967 | 6.57909 | 48 ft | 23 kts | 54° |
| 2026-05-08 12:05 | 53.12093 | 6.58176 | 56 ft | 34 kts | 54° |
| 2026-05-08 12:06 | 53.12251 | 6.58506 | 107 ft | 33 kts | 54° |
| 2026-05-08 12:06 | 53.12387 | 6.58814 | 183 ft | 39 kts | 54° |
| 2026-05-08 12:06 | 53.12547 | 6.59165 | 307 ft | 38 kts | 53° |
| 2026-05-08 12:06 | 53.12653 | 6.59401 | 380 ft | 39 kts | 52° |
| 2026-05-08 12:07 | 53.12832 | 6.59763 | 487 ft | 40 kts | 53° |
| 2026-05-08 12:07 | 53.12985 | 6.60146 | 603 ft | 41 kts | 58° |
| 2026-05-08 12:07 | 53.13122 | 6.60570 | 736 ft | 41 kts | 60° |
| 2026-05-08 12:07 | 53.13262 | 6.60991 | 855 ft | 41 kts | 72° |
| 2026-05-08 12:08 | 53.13174 | 6.61401 | 976 ft | 43 kts | 127° |
| 2026-05-08 12:08 | 53.12819 | 6.61356 | 993 ft | 72 kts | 207° |
| 2026-05-08 12:08 | 53.12432 | 6.60751 | 959 ft | 77 kts | 197° |
| 2026-05-08 12:08 | 53.11959 | 6.60516 | 978 ft | 66 kts | 174° |
| 2026-05-08 12:09 | 53.11513 | 6.60359 | 996 ft | 71 kts | 172° |
| 2026-05-08 12:09 | 53.11008 | 6.60296 | 1027 ft | 76 kts | 169° |
| 2026-05-08 12:09 | 53.10458 | 6.60195 | 1030 ft | 83 kts | 172° |
| 2026-05-08 12:09 | 53.09876 | 6.60110 | 1022 ft | 83 kts | 170° |
| 2026-05-08 12:10 | 53.09292 | 6.60031 | 986 ft | 86 kts | 171° |
| 2026-05-08 12:10 | 53.08704 | 6.59944 | 1002 ft | 85 kts | 173° |
| 2026-05-08 12:10 | 53.08088 | 6.59881 | 1006 ft | 94 kts | 171° |
| 2026-05-08 12:10 | 53.07426 | 6.59829 | 969 ft | 99 kts | 172° |
| 2026-05-08 12:11 | 53.06756 | 6.59722 | 995 ft | 95 kts | 179° |
| 2026-05-08 12:11 | 53.06104 | 6.59386 | 992 ft | 102 kts | 195° |
| 2026-05-08 12:11 | 53.05454 | 6.58880 | 991 ft | 103 kts | 199° |
| 2026-05-08 12:11 | 53.04823 | 6.58316 | 1006 ft | 105 kts | 203° |
| 2026-05-08 12:12 | 53.04171 | 6.57684 | 1016 ft | 108 kts | 203° |
| 2026-05-08 12:12 | 53.03535 | 6.57027 | 988 ft | 108 kts | 213° |
| 2026-05-08 12:12 | 53.02991 | 6.56184 | 948 ft | 106 kts | 223° |
| 2026-05-08 12:12 | 53.02485 | 6.55320 | 919 ft | 108 kts | 218° |
| 2026-05-08 12:13 | 53.01924 | 6.54514 | 981 ft | 103 kts | 212° |
| 2026-05-08 12:13 | 53.01375 | 6.53797 | 1020 ft | 102 kts | 212° |
| 2026-05-08 12:13 | 53.00837 | 6.53108 | 1098 ft | 97 kts | 209° |
| 2026-05-08 12:13 | 53.00246 | 6.52535 | 1140 ft | 99 kts | 193° |
| 2026-05-08 12:14 | 52.99594 | 6.52415 | 1176 ft | 90 kts | 163° |
| 2026-05-08 12:14 | 52.99001 | 6.52691 | 1198 ft | 90 kts | 152° |
| 2026-05-08 12:14 | 52.98440 | 6.53038 | 1202 ft | 95 kts | 151° |
| 2026-05-08 12:14 | 52.97826 | 6.53460 | 1191 ft | 95 kts | 142° |
| 2026-05-08 12:15 | 52.97250 | 6.54012 | 1185 ft | 96 kts | 143° |
| 2026-05-08 12:15 | 52.96645 | 6.54463 | 1193 ft | 95 kts | 155° |
| 2026-05-08 12:15 | 52.95967 | 6.54482 | 1170 ft | 101 kts | 184° |
| 2026-05-08 12:15 | 52.95291 | 6.54142 | 1167 ft | 103 kts | 189° |
| 2026-05-08 12:16 | 52.94597 | 6.53790 | 1175 ft | 106 kts | 188° |
| 2026-05-08 12:16 | 52.93881 | 6.53424 | 1177 ft | 109 kts | 187° |
| 2026-05-08 12:16 | 52.93151 | 6.53169 | 1198 ft | 107 kts | 181° |
| 2026-05-08 12:16 | 52.92407 | 6.52991 | 1180 ft | 111 kts | 177° |
| 2026-05-08 12:17 | 52.91635 | 6.52873 | 1185 ft | 112 kts | 175° |
| 2026-05-08 12:17 | 52.90870 | 6.52760 | 1182 ft | 110 kts | 176° |
| 2026-05-08 12:17 | 52.90110 | 6.52587 | 1163 ft | 110 kts | 181° |
| 2026-05-08 12:17 | 52.89374 | 6.52307 | 1182 ft | 108 kts | 189° |
| 2026-05-08 12:18 | 52.88694 | 6.51782 | 1170 ft | 108 kts | 197° |
| 2026-05-08 12:18 | 52.88024 | 6.51226 | 1187 ft | 108 kts | 200° |
| 2026-05-08 12:18 | 52.87361 | 6.50640 | 1168 ft | 108 kts | 199° |
| 2026-05-08 12:18 | 52.86704 | 6.50114 | 1170 ft | 106 kts | 197° |
| 2026-05-08 12:19 | 52.86031 | 6.49607 | 1173 ft | 107 kts | 196° |
| 2026-05-08 12:19 | 52.85356 | 6.49098 | 1193 ft | 109 kts | 197° |
| 2026-05-08 12:19 | 52.84669 | 6.48540 | 1176 ft | 108 kts | 199° |
| 2026-05-08 12:19 | 52.84009 | 6.48008 | 1174 ft | 106 kts | 200° |
| 2026-05-08 12:20 | 52.83344 | 6.47468 | 1175 ft | 106 kts | 200° |
| 2026-05-08 12:20 | 52.82696 | 6.46909 | 1189 ft | 106 kts | 202° |
| 2026-05-08 12:20 | 52.82053 | 6.46376 | 1180 ft | 107 kts | 198° |
| 2026-05-08 12:20 | 52.81365 | 6.45890 | 1194 ft | 104 kts | 194° |
| 2026-05-08 12:21 | 52.80678 | 6.45482 | 1207 ft | 105 kts | 195° |
| 2026-05-08 12:21 | 52.79988 | 6.45100 | 1228 ft | 103 kts | 191° |
| 2026-05-08 12:21 | 52.79297 | 6.44764 | 1217 ft | 103 kts | 189° |
| 2026-05-08 12:21 | 52.78606 | 6.44467 | 1231 ft | 103 kts | 186° |
| 2026-05-08 12:22 | 52.77929 | 6.44020 | 1262 ft | 108 kts | 206° |
| 2026-05-08 12:22 | 52.77398 | 6.43103 | 1237 ft | 113 kts | 232° |
| 2026-05-08 12:22 | 52.77017 | 6.41959 | 1207 ft | 115 kts | 237° |
| 2026-05-08 12:22 | 52.76645 | 6.40795 | 1199 ft | 113 kts | 231° |
| 2026-05-08 12:23 | 52.76184 | 6.39763 | 1208 ft | 111 kts | 223° |
| 2026-05-08 12:23 | 52.75722 | 6.38921 | 1206 ft | 115 kts | 221° |
| 2026-05-08 12:23 | 52.75183 | 6.37947 | 1191 ft | 116 kts | 219° |
| 2026-05-08 12:23 | 52.74628 | 6.36995 | 1196 ft | 115 kts | 219° |
| 2026-05-08 12:24 | 52.74075 | 6.36059 | 1197 ft | 113 kts | 220° |
| 2026-05-08 12:24 | 52.73599 | 6.35189 | 1212 ft | 115 kts | 221° |
| 2026-05-08 12:24 | 52.73138 | 6.34096 | 1232 ft | 118 kts | 235° |
| 2026-05-08 12:24 | 52.72722 | 6.32918 | 1241 ft | 118 kts | 233° |
| 2026-05-08 12:25 | 52.72331 | 6.31723 | 1203 ft | 119 kts | 236° |
| 2026-05-08 12:25 | 52.71964 | 6.30520 | 1213 ft | 119 kts | 239° |
| 2026-05-08 12:25 | 52.71609 | 6.29320 | 1214 ft | 113 kts | 240° |
| 2026-05-08 12:25 | 52.71302 | 6.28138 | 1204 ft | 112 kts | 244° |
| 2026-05-08 12:26 | 52.71025 | 6.26920 | 1173 ft | 117 kts | 246° |
| 2026-05-08 12:26 | 52.70789 | 6.25667 | 1175 ft | 111 kts | 244° |
| 2026-05-08 12:26 | 52.70322 | 6.24726 | 1205 ft | 105 kts | 213° |
| 2026-05-08 12:26 | 52.69748 | 6.24019 | 1304 ft | 104 kts | 211° |
| 2026-05-08 12:27 | 52.69159 | 6.23242 | 1189 ft | 113 kts | 214° |
| 2026-05-08 12:27 | 52.68626 | 6.22304 | 1162 ft | 112 kts | 224° |
| 2026-05-08 12:27 | 52.68138 | 6.21309 | 1170 ft | 110 kts | 225° |
| 2026-05-08 12:27 | 52.67635 | 6.20382 | 1166 ft | 106 kts | 210° |
| 2026-05-08 12:28 | 52.66996 | 6.19872 | 1195 ft | 101 kts | 188° |
| 2026-05-08 12:28 | 52.66313 | 6.19674 | 1200 ft | 99 kts | 175° |
| 2026-05-08 12:28 | 52.65654 | 6.19741 | 1212 ft | 93 kts | 162° |
| 2026-05-08 12:28 | 52.65002 | 6.19892 | 1162 ft | 95 kts | 165° |
| 2026-05-08 12:29 | 52.64431 | 6.20018 | 1192 ft | 92 kts | 163° |
| 2026-05-08 12:29 | 52.63772 | 6.20181 | 1189 ft | 98 kts | 164° |
| 2026-05-08 12:29 | 52.63094 | 6.20336 | 1190 ft | 98 kts | 164° |
| 2026-05-08 12:29 | 52.62411 | 6.20434 | 1211 ft | 97 kts | 172° |
| 2026-05-08 12:30 | 52.61748 | 6.20423 | 1212 ft | 94 kts | 174° |
| 2026-05-08 12:30 | 52.61107 | 6.20309 | 1207 ft | 93 kts | 179° |
| 2026-05-08 12:30 | 52.60466 | 6.20090 | 1207 ft | 93 kts | 185° |
| 2026-05-08 12:30 | 52.59821 | 6.19799 | 1190 ft | 101 kts | 188° |
| 2026-05-08 12:31 | 52.59160 | 6.19485 | 1179 ft | 97 kts | 188° |
| 2026-05-08 12:31 | 52.58523 | 6.19140 | 1201 ft | 98 kts | 191° |
| 2026-05-08 12:31 | 52.57877 | 6.18757 | 1203 ft | 98 kts | 194° |
| 2026-05-08 12:31 | 52.57240 | 6.18341 | 1203 ft | 99 kts | 193° |
| 2026-05-08 12:32 | 52.56600 | 6.17930 | 1203 ft | 98 kts | 193° |
| 2026-05-08 12:32 | 52.55960 | 6.17521 | 1221 ft | 99 kts | 193° |
| 2026-05-08 12:32 | 52.55315 | 6.17098 | 1188 ft | 100 kts | 194° |
| 2026-05-08 12:32 | 52.54691 | 6.16652 | 1198 ft | 95 kts | 197° |
| 2026-05-08 12:33 | 52.54091 | 6.16165 | 1203 ft | 97 kts | 199° |
| 2026-05-08 12:33 | 52.53468 | 6.15717 | 1183 ft | 99 kts | 192° |
| 2026-05-08 12:33 | 52.52812 | 6.15287 | 1196 ft | 104 kts | 195° |
| 2026-05-08 12:33 | 52.52137 | 6.14819 | 1176 ft | 105 kts | 195° |
| 2026-05-08 12:34 | 52.51444 | 6.14469 | 1188 ft | 103 kts | 181° |
| 2026-05-08 12:34 | 52.50736 | 6.14261 | 1206 ft | 106 kts | 184° |
| 2026-05-08 12:34 | 52.49997 | 6.13944 | 1195 ft | 112 kts | 187° |
| 2026-05-08 12:34 | 52.49252 | 6.13857 | 1205 ft | 103 kts | 154° |
| 2026-05-08 12:35 | 52.48822 | 6.14685 | 1205 ft | 95 kts | 112° |
| 2026-05-08 12:35 | 52.48533 | 6.15650 | 1214 ft | 96 kts | 114° |
| 2026-05-08 12:35 | 52.48204 | 6.16611 | 1211 ft | 96 kts | 116° |
| 2026-05-08 12:35 | 52.47858 | 6.17570 | 1207 ft | 100 kts | 117° |
| 2026-05-08 12:36 | 52.47466 | 6.18537 | 1203 ft | 103 kts | 121° |
| 2026-05-08 12:36 | 52.46992 | 6.19337 | 1224 ft | 102 kts | 139° |
| 2026-05-08 12:36 | 52.46476 | 6.19941 | 1202 ft | 104 kts | 141° |
| 2026-05-08 12:36 | 52.45922 | 6.20684 | 1207 ft | 101 kts | 129° |
| 2026-05-08 12:37 | 52.45512 | 6.21571 | 1200 ft | 95 kts | 120° |
| 2026-05-08 12:37 | 52.45163 | 6.22488 | 1184 ft | 94 kts | 119° |
| 2026-05-08 12:37 | 52.44801 | 6.23355 | 1204 ft | 89 kts | 122° |
| 2026-05-08 12:37 | 52.44407 | 6.24108 | 1186 ft | 88 kts | 132° |
| 2026-05-08 12:38 | 52.43869 | 6.24618 | 1165 ft | 93 kts | 158° |
| 2026-05-08 12:38 | 52.43210 | 6.24593 | 1179 ft | 99 kts | 185° |
| 2026-05-08 12:38 | 52.42521 | 6.24467 | 1198 ft | 98 kts | 168° |
| 2026-05-08 12:38 | 52.41884 | 6.24824 | 1207 ft | 99 kts | 150° |
| 2026-05-08 12:39 | 52.41246 | 6.25320 | 1196 ft | 103 kts | 147° |
| 2026-05-08 12:39 | 52.40664 | 6.25903 | 1205 ft | 95 kts | 136° |
| 2026-05-08 12:39 | 52.40143 | 6.26538 | 1212 ft | 94 kts | 147° |
| 2026-05-08 12:39 | 52.39482 | 6.26513 | 1196 ft | 105 kts | 203° |
| 2026-05-08 12:40 | 52.38884 | 6.25833 | 1190 ft | 104 kts | 207° |
| 2026-05-08 12:40 | 52.38207 | 6.25635 | 1207 ft | 98 kts | 166° |
| 2026-05-08 12:40 | 52.37549 | 6.25873 | 1230 ft | 96 kts | 164° |
| 2026-05-08 12:40 | 52.36860 | 6.25850 | 1196 ft | 101 kts | 178° |
| 2026-05-08 12:41 | 52.36183 | 6.25953 | 1234 ft | 95 kts | 165° |
| 2026-05-08 12:41 | 52.35538 | 6.26088 | 1251 ft | 95 kts | 167° |
| 2026-05-08 12:41 | 52.34948 | 6.26265 | 1233 ft | 97 kts | 158° |
| 2026-05-08 12:41 | 52.34353 | 6.26764 | 1203 ft | 96 kts | 133° |
| 2026-05-08 12:42 | 52.34002 | 6.27644 | 1192 ft | 90 kts | 114° |
| 2026-05-08 12:42 | 52.33651 | 6.28492 | 1205 ft | 92 kts | 134° |
| 2026-05-08 12:42 | 52.33034 | 6.28770 | 1216 ft | 100 kts | 180° |
| 2026-05-08 12:42 | 52.32360 | 6.28396 | 1185 ft | 101 kts | 195° |
| 2026-05-08 12:43 | 52.31715 | 6.27980 | 1176 ft | 98 kts | 194° |
| 2026-05-08 12:43 | 52.31087 | 6.27600 | 1181 ft | 95 kts | 195° |
| 2026-05-08 12:43 | 52.30486 | 6.27194 | 1188 ft | 92 kts | 193° |
| 2026-05-08 12:43 | 52.29896 | 6.26744 | 1176 ft | 95 kts | 204° |
| 2026-05-08 12:44 | 52.29311 | 6.26249 | 1226 ft | 96 kts | 199° |
| 2026-05-08 12:44 | 52.28693 | 6.25850 | 1267 ft | 95 kts | 195° |
| 2026-05-08 12:44 | 52.28079 | 6.25463 | 1236 ft | 95 kts | 195° |
| 2026-05-08 12:44 | 52.27457 | 6.25073 | 1193 ft | 94 kts | 195° |
| 2026-05-08 12:45 | 52.26865 | 6.24675 | 1225 ft | 90 kts | 197° |
| 2026-05-08 12:45 | 52.26276 | 6.24264 | 1201 ft | 95 kts | 198° |
| 2026-05-08 12:45 | 52.25668 | 6.23833 | 1214 ft | 97 kts | 200° |
| 2026-05-08 12:45 | 52.25048 | 6.23361 | 1229 ft | 99 kts | 201° |
| 2026-05-08 12:46 | 52.24447 | 6.22818 | 1234 ft | 99 kts | 206° |
| 2026-05-08 12:46 | 52.23881 | 6.22175 | 1200 ft | 100 kts | 212° |
| 2026-05-08 12:46 | 52.23407 | 6.21373 | 1210 ft | 98 kts | 236° |
| 2026-05-08 12:46 | 52.23203 | 6.20296 | 1167 ft | 102 kts | 257° |
| 2026-05-08 12:47 | 52.23094 | 6.19153 | 1108 ft | 101 kts | 258° |
| 2026-05-08 12:47 | 52.22990 | 6.18067 | 989 ft | 92 kts | 258° |
| 2026-05-08 12:47 | 52.22913 | 6.17183 | 996 ft | 81 kts | 258° |
| 2026-05-08 12:47 | 52.22827 | 6.16289 | 1009 ft | 79 kts | 262° |
| 2026-05-08 12:48 | 52.22692 | 6.15434 | 1033 ft | 78 kts | 247° |
| 2026-05-08 12:48 | 52.22466 | 6.14625 | 1023 ft | 78 kts | 240° |
| 2026-05-08 12:48 | 52.22207 | 6.13822 | 1038 ft | 82 kts | 237° |
| 2026-05-08 12:48 | 52.21961 | 6.13046 | 1082 ft | 85 kts | 238° |
| 2026-05-08 12:49 | 52.21677 | 6.12179 | 1047 ft | 86 kts | 241° |
| 2026-05-08 12:49 | 52.21423 | 6.11285 | 1040 ft | 87 kts | 242° |
| 2026-05-08 12:49 | 52.21177 | 6.10378 | 925 ft | 89 kts | 243° |
| 2026-05-08 12:49 | 52.20929 | 6.09458 | 841 ft | 90 kts | 245° |
| 2026-05-08 12:50 | 52.20705 | 6.08498 | 732 ft | 89 kts | 246° |
| 2026-05-08 12:50 | 52.20505 | 6.07646 | 729 ft | 72 kts | 247° |
| 2026-05-08 12:50 | 52.20353 | 6.06969 | 759 ft | 56 kts | 253° |
| 2026-05-08 12:50 | 52.20252 | 6.06366 | 807 ft | 55 kts | 276° |
| 2026-05-08 12:51 | 52.20401 | 6.05781 | 771 ft | 57 kts | 323° |
| 2026-05-08 12:51 | 52.21058 | 6.05208 | 725 ft | 50 kts | 357° |
| 2026-05-08 12:51 | 52.21429 | 6.05078 | 738 ft | 61 kts | 359° |
| 2026-05-08 12:52 | 52.21881 | 6.05057 | 716 ft | 67 kts | 7° |
| 2026-05-08 12:52 | 52.22436 | 6.04217 | 742 ft | 72 kts | 262° |
| 2026-05-08 12:52 | 52.22399 | 6.03430 | 739 ft | 67 kts | 265° |
| 2026-05-08 12:53 | 52.22410 | 6.02710 | 783 ft | 64 kts | 297° |
| 2026-05-08 12:53 | 52.22741 | 6.02259 | 708 ft | 67 kts | 341° |
| 2026-05-08 12:53 | 52.23163 | 6.01971 | 630 ft | 61 kts | 346° |
| 2026-05-08 12:53 | 52.23536 | 6.01769 | 523 ft | 53 kts | 350° |
| 2026-05-08 12:54 | 52.23854 | 6.01627 | 472 ft | 42 kts | 7° |
| 2026-05-08 12:54 | 52.24092 | 6.01845 | 409 ft | 43 kts | 66° |
| 2026-05-08 12:54 | 52.24157 | 6.02284 | 346 ft | 38 kts | 86° |
| 2026-05-08 12:54 | 52.24178 | 6.02683 | 279 ft | 33 kts | 87° |
| 2026-05-08 12:55 | 52.24193 | 6.03027 | 229 ft | 30 kts | 84° |
| 2026-05-08 12:55 | 52.24207 | 6.03352 | 205 ft | 28 kts | 86° |
| 2026-05-08 12:55 | 52.24221 | 6.03675 | 157 ft | 29 kts | 86° |
| 2026-05-08 12:55 | 52.24236 | 6.03991 | 105 ft | 25 kts | 85° |
| 2026-05-08 12:56 | 52.24248 | 6.04246 | 54 ft | 21 kts | 84° |
| 2026-05-08 12:56 | 52.24257 | 6.04441 | 33 ft | 14 kts | 84° |
| 2026-05-08 12:56 | 52.24259 | 6.04555 | 31 ft | 10 kts | 101° |
| 2026-05-08 12:56 | 52.24217 | 6.04583 | 28 ft | 6 kts | 174° |
| 2026-05-08 12:57 | 52.24179 | 6.04592 | 26 ft | 4 kts | 130° |
| 2026-05-08 12:57 | 52.24174 | 6.04671 | 29 ft | 10 kts | 83° |
| 2026-05-08 12:57 | 52.24178 | 6.04780 | 29 ft | 9 kts | 89° |
| 2026-05-08 12:57 | 52.24184 | 6.04884 | 32 ft | 11 kts | 81° |
| 2026-05-08 12:58 | 52.24188 | 6.04983 | 30 ft | 10 kts | 84° |
| 2026-05-08 12:58 | 52.24193 | 6.05094 | 28 ft | 8 kts | 86° |
| 2026-05-08 12:58 | 52.24196 | 6.05168 | 28 ft | 6 kts | 86° |
| 2026-05-08 12:58 | 52.24201 | 6.05250 | 28 ft | 6 kts | 85° |
| 2026-05-08 12:59 | 52.24180 | 6.05279 | 27 ft | 3 kts | 111° |
| 2026-05-08 12:59 | 52.24176 | 6.05305 | 24 ft | 1 kts | 77° |
| 2026-05-08 12:59 | 52.24176 | 6.05307 | 22 ft | 0 kts | 79° |